Aérodrome :
LOGIN :

S'inscrire | Disclaimer

   EN    FR    IT 

 










Légende :    VFR   VFR Marginal   IFR   IFR Intensif   IFR Très Intensif
Visi : 
Plafond : 
>= 8 km
>= 3000ft
5 à 8 km
1000 à 3000 ft
1500m à 5 km
500 à 1000 ft
800 à 1500m
200 à 500 ft
< 800m
< 200 ft
Symboles :   Orages  Brouillard  Fortes neiges  Fortes précipitations  Vent > 20 kt
SIGMETs :   Divers  Orages  Givrage  Turbulence  Onde Orograph.  Cendres Volcan.






- Altitude de l'aérodrome : 313 ft
- Code IATA : LEH


LFOH - Le Havre Octeville

DERNIER METAR :
  • 161600Z AUTO 33008KT 9999 BKN012 OVC022 17/14 Q1022 BECMG SCT020 BKN035

METARs EXPIRÉS :
  • 161530Z AUTO 32008KT 290V350 9999 BKN011 OVC022 18/14 Q1022 BECMG SCT020 BKN035
  • 161500Z AUTO 33010KT 9999 SCT013 SCT018 OVC023 18/14 Q1022 NOSIG
  • 161430Z AUTO 33010KT 9999 SCT012 BKN022 18/14 Q1022 NOSIG
  • 161400Z AUTO 33010KT 9999 BKN010 19/14 Q1022 BECMG SCT020 BKN035
  • 161330Z AUTO 34010KT 9999 BKN008 BKN025 18/14 Q1022 BECMG SCT020 BKN035

TAF AMD TAF LFOH
Valide du 16 à 15h jusqu'au 17 à 12h UTC


161546Z 1615/1712 33010KT 9999 BKN020
TEMPO 1615/1617 OVC010
BECMG 1617/1620 27004KT
PROB40 1706/1712 2000 BR OVC002
ATIS : +33 2 35 54 64 93



MET'MAP, la Météo Aéronautique d'un coup d'oeil ! - Copyright ORBIFLY Décembre 2007 - Disclaimer

ORBIFLY MET'MAP TEAM :

Programmation & Développement : Alexandra Zaïnal
Sur une idée originale de : Baudouin d'Aumeries
Assistance à la programmation : Marc-Olivier Méhu
Soutien technique & logistique : Manuel Goepfert

Contact : metmap@orbifly.com




SOURCES & CREDITS :

   NOAA